Time;durP1;ratioP1;P1;durP2;ratioP2;P2;SDS_P1;SDS_P2;PMS_P1;PMS_P2;Temp;Humidity;BMP_temperature;BMP_pressure;BME280_temperature;BME280_humidity;BME280_pressure;Samples;Min_cycle;Max_cycle;Signal;HPM_P1;HPM_P2
2021/10/02 00:35:33;;;;;;;9.60;5.32;;;15.80;99.90;;;;;;5075125;28;20047;-75
2021/10/02 00:38:14;;;;;;;6.78;4.75;;;15.80;99.90;;;;;;5073079;28;20012;-75
2021/10/02 00:46:08;;;;;;;5.97;4.82;;;15.90;99.90;;;;;;5072914;28;20538;-75
2021/10/02 00:48:36;;;;;;;5.28;4.78;;;15.80;99.90;;;;;;5074313;28;20097;-75
2021/10/02 00:51:02;;;;;;;6.88;5.95;;;15.70;99.90;;;;;;5073619;28;20115;-76
2021/10/02 00:53:28;;;;;;;9.40;5.72;;;15.80;99.90;;;;;;5075888;28;20017;-76
2021/10/02 00:55:54;;;;;;;6.38;4.82;;;15.80;99.90;;;;;;5073005;28;20029;-76
2021/10/02 00:58:20;;;;;;;5.38;4.88;;;15.80;99.90;;;;;;5071872;28;20430;-76
2021/10/02 01:00:48;;;;;;;9.30;5.82;;;15.80;99.90;;;;;;5074070;28;20035;-75
2021/10/02 01:03:20;;;;;;;8.05;5.30;;;15.70;99.90;;;;;;5074709;28;20027;-76
2021/10/02 01:06:16;;;;;;;9.07;5.97;;;15.80;99.90;;;;;;5067505;28;20123;-76
2021/10/02 01:08:44;;;;;;;6.32;5.00;;;15.80;99.90;;;;;;5073123;28;20027;-75
2021/10/02 01:11:51;;;;;;;13.57;6.55;;;15.90;99.90;;;;;;5076066;28;20070;-76
2021/10/02 01:14:29;;;;;;;11.23;6.85;;;15.80;99.90;;;;;;5066952;28;20082;-77
2021/10/02 01:17:03;;;;;;;5.28;4.72;;;15.80;99.90;;;;;;5069465;28;20078;-76
2021/10/02 01:19:50;;;;;;;9.15;5.75;;;15.90;99.90;;;;;;5071862;28;20017;-76
2021/10/02 01:22:37;;;;;;;6.95;4.75;;;15.80;99.90;;;;;;5083148;28;20074;-76
2021/10/02 01:25:40;;;;;;;7.30;5.70;;;15.90;99.90;;;;;;5069399;28;20407;-75
2021/10/02 01:28:14;;;;;;;7.10;5.40;;;15.80;99.90;;;;;;5066191;28;20169;-76
2021/10/02 01:33:44;;;;;;;7.80;5.07;;;15.80;99.90;;;;;;5069094;28;20683;-76
2021/10/02 01:36:28;;;;;;;9.68;5.45;;;15.80;99.90;;;;;;5066157;28;20112;-76
2021/10/02 01:47:16;;;;;;;12.25;5.95;;;15.60;99.90;;;;;;5069964;28;20085;-76
2021/10/02 01:49:50;;;;;;;6.47;5.07;;;15.70;99.90;;;;;;5070900;28;20504;-76
2021/10/02 01:52:31;;;;;;;8.07;6.38;;;15.70;99.90;;;;;;5071588;28;20020;-76
2021/10/02 01:54:58;;;;;;;9.10;7.13;;;15.60;99.90;;;;;;5071334;28;20499;-76
2021/10/02 01:57:34;;;;;;;12.73;7.68;;;15.70;99.90;;;;;;5071548;28;20123;-77
2021/10/02 02:00:04;;;;;;;11.30;6.85;;;15.70;99.90;;;;;;5064584;28;20021;-76
2021/10/02 02:02:31;;;;;;;10.77;6.53;;;15.70;99.90;;;;;;5074118;28;20030;-76
2021/10/02 02:04:59;;;;;;;7.97;6.95;;;15.60;99.90;;;;;;5073360;28;20032;-75
2021/10/02 02:07:26;;;;;;;9.93;6.00;;;15.80;99.90;;;;;;5076937;28;20068;-75
2021/10/02 02:09:53;;;;;;;11.30;7.20;;;15.70;99.90;;;;;;5073188;28;20044;-76
2021/10/02 02:12:20;;;;;;;8.52;7.15;;;15.80;99.90;;;;;;5070508;28;20024;-76
2021/10/02 02:14:49;;;;;;;8.82;6.63;;;15.70;99.90;;;;;;5073961;28;20104;-75
2021/10/02 02:17:17;;;;;;;9.38;6.78;;;15.80;99.90;;;;;;5073573;28;20066;-76
2021/10/02 02:19:45;;;;;;;9.10;6.65;;;15.70;99.90;;;;;;5073839;28;20027;-76
2021/10/02 02:22:11;;;;;;;9.13;8.00;;;15.70;99.90;;;;;;5074784;28;20009;-76
2021/10/02 02:24:36;;;;;;;11.50;7.57;;;15.70;99.90;;;;;;5070433;28;20574;-76
2021/10/02 02:27:03;;;;;;;9.60;7.50;;;15.70;99.90;;;;;;5074819;28;20609;-76
2021/10/02 02:29:33;;;;;;;8.82;7.28;;;15.70;99.90;;;;;;5074523;28;20020;-76
2021/10/02 02:32:00;;;;;;;12.63;8.52;;;15.70;99.90;;;;;;5074464;28;20017;-76
2021/10/02 02:34:28;;;;;;;8.77;6.80;;;15.80;99.90;;;;;;5073971;28;20017;-76
2021/10/02 02:36:55;;;;;;;8.38;7.38;;;15.80;99.90;;;;;;5074418;28;20028;-76
2021/10/02 02:39:20;;;;;;;15.88;7.07;;;15.80;99.90;;;;;;5080751;28;20020;-75
2021/10/02 02:41:46;;;;;;;10.57;8.27;;;15.80;99.90;;;;;;5074138;28;20029;-76
2021/10/02 02:44:12;;;;;;;12.52;7.78;;;15.90;99.90;;;;;;5068592;28;20016;-76
2021/10/02 02:46:39;;;;;;;8.82;7.68;;;15.90;99.90;;;;;;5088677;28;20040;-76
2021/10/02 02:49:18;;;;;;;11.80;7.82;;;15.90;99.90;;;;;;5074201;28;20028;-76
2021/10/02 02:51:52;;;;;;;7.53;6.35;;;15.90;99.90;;;;;;5081968;28;20036;-76
2021/10/02 02:54:34;;;;;;;7.22;6.20;;;15.90;99.90;;;;;;5083844;28;20024;-76
2021/10/02 02:57:10;;;;;;;10.20;6.63;;;15.90;99.90;;;;;;5071950;28;20025;-76
2021/10/02 02:59:40;;;;;;;7.78;6.32;;;15.70;99.90;;;;;;5072584;28;20103;-75
2021/10/02 03:02:10;;;;;;;7.30;6.43;;;15.80;99.90;;;;;;5073978;28;20024;-76
2021/10/02 03:04:37;;;;;;;7.03;5.95;;;15.80;99.90;;;;;;5071713;28;20039;-76
2021/10/02 03:07:06;;;;;;;7.07;5.68;;;15.90;99.90;;;;;;5073416;28;20063;-76
2021/10/02 03:09:36;;;;;;;9.10;6.20;;;15.90;99.90;;;;;;5073762;28;20024;-76
2021/10/02 03:12:03;;;;;;;8.00;7.03;;;15.90;99.90;;;;;;5071557;28;20057;-76
2021/10/02 03:14:31;;;;;;;7.95;6.47;;;15.80;99.90;;;;;;5071648;28;20016;-76
2021/10/02 03:16:59;;;;;;;12.38;7.10;;;15.70;99.90;;;;;;5073210;28;20473;-76
2021/10/02 03:19:25;;;;;;;10.93;7.13;;;15.70;99.90;;;;;;5079338;28;20476;-76
2021/10/02 03:21:52;;;;;;;11.63;7.13;;;15.70;99.90;;;;;;5074967;28;20385;-76
2021/10/02 03:24:20;;;;;;;9.20;7.57;;;15.70;99.90;;;;;;5072073;28;20013;-76
2021/10/02 03:26:47;;;;;;;11.68;7.90;;;15.80;99.90;;;;;;5073182;28;20048;-76
2021/10/02 03:29:14;;;;;;;13.52;8.60;;;15.70;99.90;;;;;;5071648;28;20059;-76
2021/10/02 03:31:40;;;;;;;8.50;7.45;;;15.80;99.90;;;;;;5079647;28;20050;-76
2021/10/02 03:34:07;;;;;;;12.10;7.75;;;15.70;99.90;;;;;;5076449;28;20051;-76
2021/10/02 03:36:34;;;;;;;10.38;7.22;;;15.70;99.90;;;;;;5073284;28;20436;-76
2021/10/02 03:39:00;;;;;;;11.27;8.23;;;15.80;99.90;;;;;;5079839;28;20040;-76
2021/10/02 03:41:25;;;;;;;11.40;7.63;;;15.80;99.90;;;;;;5078798;28;20460;-76
2021/10/02 03:43:52;;;;;;;13.60;9.20;;;15.80;99.90;;;;;;5069703;28;20067;-76
2021/10/02 03:46:17;;;;;;;12.93;7.80;;;15.80;99.90;;;;;;5072709;28;20477;-76
2021/10/02 03:48:43;;;;;;;9.55;7.43;;;15.80;99.90;;;;;;5072062;28;20036;-76
2021/10/02 03:51:08;;;;;;;14.52;10.00;;;15.80;99.90;;;;;;5073279;28;20028;-76
2021/10/02 03:53:35;;;;;;;10.00;8.63;;;15.80;99.90;;;;;;5073400;28;20016;-76
2021/10/02 03:56:01;;;;;;;12.90;8.35;;;15.70;99.90;;;;;;5072896;28;20550;-76
2021/10/02 03:58:27;;;;;;;12.15;8.23;;;15.70;99.90;;;;;;5072316;28;20028;-76
2021/10/02 04:00:52;;;;;;;12.85;8.07;;;15.70;99.90;;;;;;5072403;28;20063;-76
2021/10/02 04:03:18;;;;;;;14.45;8.50;;;15.70;99.90;;;;;;5073077;28;20436;-76
2021/10/02 04:05:44;;;;;;;15.90;7.93;;;15.60;99.90;;;;;;5071025;28;20024;-76
2021/10/02 04:08:09;;;;;;;12.27;8.35;;;15.70;99.90;;;;;;5072125;28;20089;-76
2021/10/02 04:10:35;;;;;;;15.77;9.40;;;15.70;99.90;;;;;;5071976;28;20020;-76
2021/10/02 04:13:00;;;;;;;14.00;9.48;;;15.70;99.90;;;;;;5068248;28;20037;-76
2021/10/02 04:15:26;;;;;;;12.55;9.13;;;15.70;99.90;;;;;;5071718;28;20464;-76
2021/10/02 04:17:52;;;;;;;14.73;10.25;;;15.70;99.90;;;;;;5072476;28;20024;-76
2021/10/02 04:20:18;;;;;;;16.13;9.68;;;15.60;99.90;;;;;;5072517;28;20046;-76
2021/10/02 04:22:43;;;;;;;16.88;9.57;;;15.70;99.90;;;;;;5073969;28;20059;-75
2021/10/02 04:25:09;;;;;;;16.45;9.65;;;15.60;99.90;;;;;;5069171;28;20492;-75
2021/10/02 04:27:34;;;;;;;15.98;9.85;;;15.50;99.90;;;;;;5072424;28;20782;-76
2021/10/02 04:30:00;;;;;;;20.02;10.35;;;15.60;99.90;;;;;;5072072;28;20025;-76
2021/10/02 04:32:26;;;;;;;13.82;9.25;;;15.70;99.90;;;;;;5070622;28;20017;-76
2021/10/02 04:34:51;;;;;;;15.85;9.43;;;15.70;99.90;;;;;;5073059;28;20032;-76
2021/10/02 04:37:17;;;;;;;14.73;9.13;;;15.50;99.90;;;;;;5072576;28;20108;-76
2021/10/02 04:39:43;;;;;;;13.45;8.93;;;15.50;99.90;;;;;;5079400;28;20039;-76
2021/10/02 04:42:08;;;;;;;12.50;8.57;;;15.50;99.90;;;;;;5075686;28;20046;-76
2021/10/02 04:44:34;;;;;;;17.38;9.93;;;15.60;99.90;;;;;;5068847;28;20360;-76
2021/10/02 04:47:00;;;;;;;14.50;9.73;;;15.50;99.90;;;;;;5072256;28;20469;-75
2021/10/02 04:49:25;;;;;;;21.65;10.90;;;15.50;99.90;;;;;;5072217;28;20025;-76
2021/10/02 04:51:51;;;;;;;16.48;9.95;;;15.50;99.90;;;;;;5072283;28;20435;-76
2021/10/02 04:54:17;;;;;;;15.40;10.45;;;15.60;99.90;;;;;;5072321;28;20024;-75
2021/10/02 04:56:44;;;;;;;15.48;9.75;;;15.60;99.90;;;;;;5071381;28;20090;-76
2021/10/02 04:59:09;;;;;;;19.45;10.40;;;15.60;99.90;;;;;;5071261;28;20028;-76
2021/10/02 05:01:35;;;;;;;17.58;10.55;;;15.60;99.90;;;;;;5072145;28;20090;-76
2021/10/02 05:04:01;;;;;;;17.45;10.70;;;15.60;99.90;;;;;;5084697;28;20020;-76
2021/10/02 05:06:28;;;;;;;17.27;11.02;;;15.70;99.90;;;;;;5071343;28;20044;-76
2021/10/02 05:08:54;;;;;;;17.92;11.63;;;15.60;99.90;;;;;;5071685;28;20372;-76
2021/10/02 05:11:19;;;;;;;18.95;11.15;;;15.70;99.90;;;;;;5072073;28;20047;-76
2021/10/02 05:13:45;;;;;;;15.40;10.68;;;15.70;99.90;;;;;;5070805;28;20465;-76
2021/10/02 05:16:11;;;;;;;22.08;11.77;;;15.60;99.90;;;;;;5071709;28;20020;-76
2021/10/02 05:18:37;;;;;;;16.48;11.55;;;15.60;99.90;;;;;;5071187;28;20517;-76
2021/10/02 05:21:03;;;;;;;18.75;12.00;;;15.60;99.90;;;;;;5071778;28;20658;-76
2021/10/02 05:23:28;;;;;;;17.25;10.95;;;15.70;99.90;;;;;;5072129;28;20048;-76
2021/10/02 05:25:54;;;;;;;20.23;13.57;;;15.60;99.90;;;;;;5069194;28;20040;-76
2021/10/02 05:28:23;;;;;;;21.30;13.93;;;15.60;99.90;;;;;;5070969;28;20021;-76
2021/10/02 05:30:50;;;;;;;21.15;12.38;;;15.60;99.90;;;;;;5064081;28;20085;-76
2021/10/02 05:33:16;;;;;;;18.27;12.38;;;15.60;99.90;;;;;;5071975;28;20019;-76
2021/10/02 05:35:42;;;;;;;23.08;13.15;;;15.60;99.90;;;;;;5071546;28;20024;-76
2021/10/02 05:38:07;;;;;;;20.98;12.93;;;15.70;99.90;;;;;;5073756;28;20097;-76
2021/10/02 05:40:33;;;;;;;14.23;9.75;;;15.80;99.90;;;;;;5073873;28;20032;-76
2021/10/02 05:43:02;;;;;;;18.83;12.55;;;15.80;99.90;;;;;;5073621;28;20096;-76
2021/10/02 05:45:27;;;;;;;19.70;12.18;;;15.60;99.90;;;;;;5072778;28;20115;-76
2021/10/02 05:47:53;;;;;;;20.17;13.60;;;15.70;99.90;;;;;;5083559;28;20177;-76
2021/10/02 05:50:19;;;;;;;19.52;11.75;;;15.70;99.90;;;;;;5084529;28;20027;-76
2021/10/02 05:52:44;;;;;;;19.63;11.95;;;15.70;99.90;;;;;;5081619;28;20035;-76
2021/10/02 05:55:11;;;;;;;22.70;13.68;;;15.60;99.90;;;;;;5081302;28;20469;-76
2021/10/02 05:57:37;;;;;;;19.42;13.00;;;15.70;99.90;;;;;;5075813;28;20050;-76
2021/10/02 06:00:07;;;;;;;17.90;12.75;;;15.70;99.90;;;;;;5074764;28;20457;-76
2021/10/02 06:02:32;;;;;;;17.90;11.30;;;15.60;99.90;;;;;;5074919;28;20021;-76
2021/10/02 06:04:58;;;;;;;18.67;12.07;;;15.70;99.90;;;;;;5073147;28;20095;-76
2021/10/02 06:07:24;;;;;;;17.15;11.23;;;15.70;99.90;;;;;;5075488;28;20025;-76
2021/10/02 06:09:51;;;;;;;17.77;11.23;;;15.60;99.90;;;;;;5074255;28;20092;-76
2021/10/02 06:12:17;;;;;;;20.08;11.63;;;15.50;99.90;;;;;;5074106;28;20123;-76
2021/10/02 06:14:43;;;;;;;16.33;11.35;;;15.50;99.90;;;;;;5073770;28;20081;-76
2021/10/02 06:17:08;;;;;;;13.30;10.48;;;15.60;99.90;;;;;;5075082;28;20478;-76
2021/10/02 06:19:34;;;;;;;21.10;12.90;;;15.60;99.90;;;;;;5074689;28;20456;-76
2021/10/02 06:22:00;;;;;;;24.83;12.63;;;15.60;99.90;;;;;;5071961;28;20023;-75
2021/10/02 06:24:25;;;;;;;18.73;11.10;;;15.70;99.90;;;;;;5069844;28;20009;-76
2021/10/02 06:26:51;;;;;;;21.00;12.27;;;15.80;99.90;;;;;;5073362;28;20046;-76
2021/10/02 06:29:17;;;;;;;16.48;12.15;;;15.80;99.90;;;;;;5075263;28;20027;-76
2021/10/02 06:31:43;;;;;;;12.60;10.25;;;15.80;99.90;;;;;;5073964;28;20033;-81
2021/10/02 06:34:09;;;;;;;21.65;12.07;;;15.70;99.90;;;;;;5073308;28;20017;-76
2021/10/02 06:36:35;;;;;;;19.63;11.43;;;15.60;99.90;;;;;;5068093;28;20494;-76
2021/10/02 06:39:02;;;;;;;17.88;10.82;;;15.70;99.90;;;;;;5080916;28;20029;-75
2021/10/02 06:41:28;;;;;;;17.10;11.00;;;15.80;99.90;;;;;;5079437;28;20021;-76
2021/10/02 06:43:53;;;;;;;16.73;11.18;;;15.70;99.90;;;;;;5073200;28;20606;-76
2021/10/02 06:46:19;;;;;;;19.52;10.40;;;15.80;99.90;;;;;;5083723;28;20024;-75
2021/10/02 06:48:44;;;;;;;15.00;9.10;;;15.70;99.90;;;;;;5080108;28;20563;-76
2021/10/02 06:51:10;;;;;;;14.05;9.35;;;15.80;99.90;;;;;;5074340;28;20028;-76
2021/10/02 06:53:36;;;;;;;13.07;8.90;;;15.80;99.90;;;;;;5073813;28;20028;-76
2021/10/02 06:56:03;;;;;;;16.00;10.13;;;15.90;99.90;;;;;;5074384;28;20032;-76
2021/10/02 06:58:28;;;;;;;16.30;9.73;;;15.90;99.90;;;;;;5073770;28;20028;-76
2021/10/02 07:00:54;;;;;;;13.10;7.82;;;16.00;99.90;;;;;;5073984;28;20025;-76
2021/10/02 07:03:19;;;;;;;11.50;7.75;;;16.00;99.90;;;;;;5074693;28;20112;-76
2021/10/02 07:05:45;;;;;;;10.80;7.45;;;15.90;99.90;;;;;;5066421;28;20021;-76
2021/10/02 07:08:11;;;;;;;11.43;7.20;;;15.90;99.90;;;;;;5046335;28;20069;-78
2021/10/02 07:10:36;;;;;;;12.48;7.50;;;15.80;99.90;;;;;;5069095;28;20120;-77
2021/10/02 07:13:02;;;;;;;13.73;7.63;;;15.90;99.90;;;;;;5064993;28;20032;-78
2021/10/02 07:15:28;;;;;;;12.65;7.55;;;15.80;99.90;;;;;;5072303;28;20021;-77
2021/10/02 07:17:54;;;;;;;9.52;6.90;;;15.80;99.90;;;;;;5072835;28;20033;-78
2021/10/02 07:20:22;;;;;;;15.60;9.15;;;15.80;99.90;;;;;;5072584;28;20013;-77
2021/10/02 07:22:48;;;;;;;14.15;7.82;;;15.80;99.90;;;;;;5073182;28;20373;-77
2021/10/02 07:25:15;;;;;;;10.00;6.65;;;15.70;99.90;;;;;;5070322;28;20046;-78
2021/10/02 07:27:42;;;;;;;9.60;6.22;;;15.70;99.90;;;;;;5071387;28;20056;-77
2021/10/02 07:30:09;;;;;;;7.53;5.95;;;15.60;99.90;;;;;;5073566;28;20036;-77
2021/10/02 07:32:35;;;;;;;9.60;6.35;;;15.60;99.90;;;;;;5072286;28;20373;-77
2021/10/02 07:35:01;;;;;;;11.20;5.90;;;15.80;99.90;;;;;;5072352;28;20021;-78
2021/10/02 07:37:27;;;;;;;9.68;5.57;;;15.80;99.90;;;;;;5066880;28;20027;-77
2021/10/02 07:39:53;;;;;;;10.77;5.78;;;15.80;99.90;;;;;;5072272;28;20095;-78
2021/10/02 07:42:19;;;;;;;6.43;4.45;;;15.90;99.90;;;;;;5069113;28;20036;-78
2021/10/02 07:44:51;;;;;;;11.68;4.63;;;15.80;99.90;;;;;;5069651;28;20023;-78
2021/10/02 07:47:19;;;;;;;8.90;4.93;;;15.70;99.90;;;;;;5073172;28;20373;-78
2021/10/02 07:49:48;;;;;;;6.40;4.05;;;15.70;99.90;;;;;;5069618;28;20273;-78
2021/10/02 07:52:13;;;;;;;6.55;4.20;;;15.70;99.90;;;;;;5072294;28;20021;-78
2021/10/02 07:54:41;;;;;;;7.47;4.10;;;15.80;99.90;;;;;;5072354;28;20493;-79
2021/10/02 07:57:07;;;;;;;7.63;4.25;;;16.00;99.90;;;;;;5071445;28;20032;-78
2021/10/02 07:59:34;;;;;;;8.50;5.68;;;15.80;99.90;;;;;;5077967;28;20016;-79
2021/10/02 08:02:00;;;;;;;6.95;3.70;;;15.80;99.90;;;;;;5075295;28;20035;-79
2021/10/02 08:04:25;;;;;;;6.95;3.75;;;15.90;99.90;;;;;;5072820;28;20016;-79
2021/10/02 08:06:51;;;;;;;5.45;3.35;;;16.00;99.90;;;;;;5073734;28;20032;-79
2021/10/02 08:09:17;;;;;;;6.78;3.63;;;16.00;99.90;;;;;;5076991;28;20008;-79
2021/10/02 08:11:43;;;;;;;4.80;3.20;;;16.00;99.90;;;;;;5080195;28;20104;-78
2021/10/02 08:14:10;;;;;;;5.45;3.22;;;16.00;99.90;;;;;;5069839;28;20595;-78
2021/10/02 08:16:37;;;;;;;6.65;2.58;;;16.10;99.90;;;;;;5076606;28;20020;-79
2021/10/02 08:19:07;;;;;;;4.07;2.45;;;16.20;99.90;;;;;;5075353;28;20062;-79
2021/10/02 08:21:34;;;;;;;4.07;2.85;;;16.10;99.90;;;;;;5077566;28;20467;-79
2021/10/02 08:24:02;;;;;;;4.43;2.85;;;16.20;99.90;;;;;;5070108;28;20035;-78
2021/10/02 08:26:30;;;;;;;5.43;2.95;;;16.20;99.90;;;;;;5064934;28;20031;-78
2021/10/02 08:28:55;;;;;;;4.00;2.55;;;16.20;99.90;;;;;;5077162;28;20081;-79
2021/10/02 08:31:23;;;;;;;3.85;3.05;;;16.20;99.90;;;;;;5071934;28;20116;-78
2021/10/02 08:33:49;;;;;;;6.32;3.22;;;16.20;99.90;;;;;;5076494;28;20385;-79
2021/10/02 08:36:15;;;;;;;3.88;2.58;;;16.30;99.90;;;;;;5070809;28;20016;-78
2021/10/02 08:38:41;;;;;;;3.50;2.50;;;16.30;99.90;;;;;;5071623;28;20111;-79
2021/10/02 08:41:08;;;;;;;6.38;3.00;;;16.30;99.90;;;;;;5071905;28;20025;-78
2021/10/02 08:43:35;;;;;;;5.28;2.30;;;16.30;99.90;;;;;;5072277;28;20031;-78
2021/10/02 08:46:03;;;;;;;3.55;2.25;;;16.30;99.90;;;;;;5070842;28;20043;-78
2021/10/02 08:48:29;;;;;;;2.97;2.10;;;16.40;99.90;;;;;;5081406;28;20023;-79
2021/10/02 08:50:56;;;;;;;3.65;2.40;;;16.50;99.90;;;;;;5074562;28;20030;-78
2021/10/02 08:53:26;;;;;;;5.68;2.22;;;16.40;99.90;;;;;;5080873;28;20023;-79
2021/10/02 08:55:52;;;;;;;2.33;2.00;;;16.50;99.90;;;;;;5088900;28;20032;-79
2021/10/02 08:58:18;;;;;;;3.80;2.22;;;16.40;99.90;;;;;;5075421;28;20384;-78
2021/10/02 09:00:45;;;;;;;2.47;1.90;;;16.60;99.90;;;;;;5072609;28;20098;-78
2021/10/02 09:03:10;;;;;;;3.35;1.65;;;16.50;99.90;;;;;;5078685;28;20047;-78
2021/10/02 09:05:36;;;;;;;3.63;1.70;;;16.70;99.90;;;;;;5077422;28;20066;-78
2021/10/02 09:08:04;;;;;;;3.78;1.70;;;16.70;99.90;;;;;;5075762;28;20020;-79
2021/10/02 09:10:31;;;;;;;2.13;1.70;;;16.80;99.90;;;;;;5076421;28;20031;-79
2021/10/02 09:12:57;;;;;;;3.05;2.28;;;16.80;99.90;;;;;;5075597;28;20020;-79
2021/10/02 09:15:23;;;;;;;3.60;1.85;;;16.80;99.90;;;;;;5080185;28;20368;-79
2021/10/02 09:17:49;;;;;;;1.98;1.70;;;16.90;99.90;;;;;;5075677;28;20031;-79
2021/10/02 09:20:16;;;;;;;1.95;1.60;;;16.90;99.90;;;;;;5075301;28;20016;-78
2021/10/02 09:23:00;;;;;;;1.42;1.33;;;16.90;99.90;;;;;;5072092;28;20031;-78
2021/10/02 09:25:28;;;;;;;1.50;1.30;;;16.90;99.90;;;;;;5074838;28;20124;-78
2021/10/02 09:28:09;;;;;;;3.20;1.40;;;17.00;99.90;;;;;;5070310;28;20040;-78
2021/10/02 09:30:36;;;;;;;2.42;1.60;;;17.10;99.90;;;;;;5072492;28;20020;-78
2021/10/02 09:33:13;;;;;;;4.60;1.50;;;17.10;99.90;;;;;;5080482;28;20380;-78
2021/10/02 09:35:43;;;;;;;3.15;1.40;;;17.10;99.90;;;;;;5069588;28;20020;-78
2021/10/02 09:38:12;;;;;;;4.80;1.40;;;17.30;99.90;;;;;;5076773;28;20024;-78
2021/10/02 09:40:38;;;;;;;4.68;1.30;;;17.30;99.90;;;;;;5077787;28;20039;-78
2021/10/02 09:43:04;;;;;;;1.50;1.30;;;17.40;99.90;;;;;;5072196;28;20033;-78
2021/10/02 09:45:35;;;;;;;2.63;1.27;;;17.40;99.90;;;;;;5074636;28;20538;-78
2021/10/02 09:48:03;;;;;;;1.98;1.23;;;17.30;99.90;;;;;;5072627;28;20416;-79
2021/10/02 09:50:33;;;;;;;2.20;1.20;;;17.30;99.90;;;;;;5066765;28;20489;-79
2021/10/02 09:53:05;;;;;;;4.90;1.42;;;17.40;99.90;;;;;;5073028;28;20413;-79
2021/10/02 09:55:36;;;;;;;2.27;1.30;;;17.30;99.90;;;;;;5071066;28;20062;-78
2021/10/02 09:58:08;;;;;;;9.02;1.50;;;17.20;99.90;;;;;;5070843;28;20282;-78
2021/10/02 10:00:39;;;;;;;2.93;1.50;;;17.30;99.90;;;;;;5066914;28;20085;-78
2021/10/02 10:03:07;;;;;;;3.55;1.48;;;17.20;99.90;;;;;;5064274;28;20921;-81
2021/10/02 10:05:36;;;;;;;3.28;1.65;;;17.20;99.90;;;;;;5070462;28;20053;-81
2021/10/02 10:08:05;;;;;;;3.47;1.55;;;17.30;99.90;;;;;;5070025;28;20044;-79
2021/10/02 10:10:33;;;;;;;1.67;1.58;;;17.20;99.90;;;;;;5069290;28;20016;-77
2021/10/02 10:13:11;;;;;;;7.95;1.65;;;17.20;99.90;;;;;;5071109;28;20024;-81
2021/10/02 10:15:40;;;;;;;3.75;1.85;;;17.30;99.90;;;;;;5069563;28;20013;-83
2021/10/02 10:18:09;;;;;;;2.00;1.33;;;17.30;99.90;;;;;;5076629;28;20104;-84
2021/10/02 10:20:50;;;;;;;2.97;1.60;;;17.30;99.90;;;;;;5067021;28;20024;-82
2021/10/02 10:23:35;;;;;;;3.38;2.03;;;17.40;99.90;;;;;;5067266;28;20103;-79
2021/10/02 10:26:17;;;;;;;2.17;1.20;;;17.40;99.90;;;;;;5062770;28;20044;-78
2021/10/02 10:28:44;;;;;;;1.60;1.38;;;17.40;99.90;;;;;;5066292;28;20029;-79
2021/10/02 10:31:17;;;;;;;3.70;1.48;;;17.50;99.90;;;;;;5064405;28;20120;-79
2021/10/02 10:33:46;;;;;;;2.38;1.30;;;17.50;99.90;;;;;;5066230;28;20044;-79
2021/10/02 10:36:13;;;;;;;2.35;1.00;;;17.60;99.90;;;;;;5068723;28;20029;-79
2021/10/02 10:38:41;;;;;;;1.58;1.33;;;17.70;99.90;;;;;;5066966;28;21251;-80
2021/10/02 10:41:07;;;;;;;3.63;1.50;;;17.70;99.90;;;;;;5070761;28;20024;-79
2021/10/02 10:43:34;;;;;;;4.93;1.92;;;17.70;99.90;;;;;;5072523;28;20025;-78
2021/10/02 10:46:05;;;;;;;1.30;1.05;;;17.70;99.90;;;;;;5067788;28;20085;-79
2021/10/02 10:48:32;;;;;;;1.20;0.93;;;17.70;99.90;;;;;;5070715;28;20370;-78
2021/10/02 10:51:12;;;;;;;1.83;1.20;;;17.70;99.90;;;;;;5073831;28;20025;-79
2021/10/02 10:53:47;;;;;;;5.63;1.20;;;17.80;99.90;;;;;;5068314;28;20025;-80
2021/10/02 10:56:15;;;;;;;2.25;1.30;;;17.90;99.90;;;;;;5070719;28;20027;-78
2021/10/02 10:58:41;;;;;;;1.90;0.98;;;17.90;99.90;;;;;;5082516;28;20036;-79
2021/10/02 11:01:09;;;;;;;2.97;1.30;;;18.00;99.90;;;;;;5068569;28;20021;-79
2021/10/02 11:03:39;;;;;;;2.65;1.17;;;18.00;99.90;;;;;;5067725;28;20017;-79
2021/10/02 11:06:09;;;;;;;2.30;1.00;;;18.00;99.90;;;;;;5063722;28;20044;-79
2021/10/02 11:09:06;;;;;;;3.03;1.70;;;18.00;99.90;;;;;;5070312;28;20035;-81
2021/10/02 11:11:44;;;;;;;3.63;1.17;;;18.10;99.90;;;;;;5074264;28;20384;-79
2021/10/02 11:14:18;;;;;;;1.70;1.38;;;18.20;99.90;;;;;;5069319;28;20090;-80
2021/10/02 11:16:45;;;;;;;3.40;1.40;;;18.30;99.90;;;;;;5076221;28;20029;-83
2021/10/02 11:19:30;;;;;;;1.42;0.90;;;18.40;99.90;;;;;;5067541;28;20082;-82
2021/10/02 11:23:03;;;;;;;;;;;;;;;;;;;;;
2021/10/02 11:25:29;;;;;;;1.60;1.00;;;18.30;99.90;;;;;;4980143;28;20516;-82
2021/10/02 11:28:15;;;;;;;2.08;0.93;;;18.20;99.90;;;;;;5063544;28;20123;-79
2021/10/02 11:30:49;;;;;;;1.45;0.80;;;18.20;99.90;;;;;;5073844;28;20082;-80
2021/10/02 11:33:51;;;;;;;2.50;1.02;;;18.00;99.90;;;;;;5073560;28;20528;-79
2021/10/02 11:36:32;;;;;;;1.77;0.82;;;18.10;99.90;;;;;;5042752;28;20052;-79
2021/10/02 11:39:26;;;;;;;1.35;0.80;;;18.10;99.90;;;;;;5053905;28;20031;-80
2021/10/02 11:41:54;;;;;;;1.65;0.60;;;18.20;99.90;;;;;;5052441;28;20044;-80
2021/10/02 11:44:37;;;;;;;0.75;0.60;;;18.20;99.90;;;;;;5057168;28;20043;-80
2021/10/02 11:47:21;;;;;;;;;;;18.20;99.90;;;;;;5066590;28;20041;-80
2021/10/02 11:50:06;;;;;;;2.47;0.85;;;18.50;99.90;;;;;;5073420;28;20426;-80
2021/10/02 11:52:35;;;;;;;1.58;0.80;;;18.60;99.90;;;;;;5073887;28;20476;-80
2021/10/02 11:58:09;;;;;;;5.28;1.20;;;18.80;99.90;;;;;;5073829;28;20077;-80
2021/10/02 12:00:57;;;;;;;1.77;1.20;;;18.90;99.90;;;;;;5066599;28;20361;-80
2021/10/02 12:03:31;;;;;;;2.17;0.85;;;19.00;99.90;;;;;;5069704;28;20021;-80
2021/10/02 12:06:00;;;;;;;0.93;0.57;;;19.10;99.90;;;;;;5072218;28;20089;-80
2021/10/02 12:08:27;;;;;;;5.47;1.10;;;19.10;99.90;;;;;;5073813;28;20468;-80
2021/10/02 12:11:00;;;;;;;3.22;1.05;;;19.20;99.90;;;;;;5072047;28;20078;-79
2021/10/02 12:13:42;;;;;;;1.52;0.70;;;19.20;99.90;;;;;;5068252;28;20380;-81
2021/10/02 12:16:08;;;;;;;;;;;19.00;99.90;;;;;;5054760;28;20036;-82
2021/10/02 12:18:49;;;;;;;2.20;0.80;;;18.80;99.90;;;;;;5052656;28;19908;-82
2021/10/02 12:21:23;;;;;;;3.58;0.75;;;18.80;99.90;;;;;;5051973;28;20044;-80
2021/10/02 12:23:52;;;;;;;3.47;1.13;;;18.70;99.90;;;;;;5053421;28;20530;-81
2021/10/02 12:26:18;;;;;;;0.68;0.60;;;18.80;99.90;;;;;;5055049;28;20025;-81
2021/10/02 12:28:43;;;;;;;2.42;0.82;;;18.90;99.90;;;;;;5073213;28;20101;-81
2021/10/02 12:31:09;;;;;;;1.23;0.68;;;19.00;99.90;;;;;;5056074;28;20036;-80
2021/10/02 12:33:35;;;;;;;2.05;0.90;;;19.10;99.90;;;;;;5052701;28;20060;-81
2021/10/02 12:36:00;;;;;;;1.17;0.85;;;19.20;99.90;;;;;;5066947;28;20021;-82
2021/10/02 12:38:39;;;;;;;1.45;0.70;;;19.20;99.90;;;;;;5072987;28;20492;-82
2021/10/02 12:41:04;;;;;;;1.48;0.65;;;19.10;99.90;;;;;;5071194;28;20089;-81
2021/10/02 12:43:34;;;;;;;3.72;0.93;;;19.20;99.90;;;;;;5073261;28;20108;-82
2021/10/02 12:46:00;;;;;;;1.98;0.93;;;19.20;99.90;;;;;;5071123;28;20031;-81
2021/10/02 12:48:26;;;;;;;1.63;0.75;;;19.20;99.90;;;;;;5073957;28;20024;-81
2021/10/02 12:50:52;;;;;;;1.00;0.75;;;19.20;99.90;;;;;;5078038;28;20480;-81
2021/10/02 12:53:19;;;;;;;1.52;0.70;;;19.00;99.90;;;;;;5073160;28;20021;-81
2021/10/02 12:55:45;;;;;;;1.95;0.63;;;18.90;99.90;;;;;;5060580;28;20028;-80
2021/10/02 12:58:16;;;;;;;2.47;0.93;;;18.80;99.90;;;;;;5073501;28;20024;-81
2021/10/02 13:00:42;;;;;;;1.77;1.02;;;18.90;99.90;;;;;;5074927;28;20110;-81
2021/10/02 13:03:10;;;;;;;1.45;0.70;;;18.90;99.90;;;;;;5068265;28;20460;-82
2021/10/02 13:05:37;;;;;;;1.58;0.75;;;18.80;99.90;;;;;;5073049;28;20043;-81
2021/10/02 13:08:19;;;;;;;2.90;0.60;;;18.80;99.90;;;;;;5074886;28;20033;-82
2021/10/02 13:10:47;;;;;;;1.50;1.00;;;18.80;99.90;;;;;;5082627;28;20035;-81
2021/10/02 13:13:16;;;;;;;3.65;0.80;;;18.90;99.90;;;;;;5071899;28;20315;-81
2021/10/02 13:15:57;;;;;;;2.28;1.10;;;18.90;99.90;;;;;;5080103;28;20035;-81
2021/10/02 13:18:26;;;;;;;3.58;1.10;;;18.90;99.90;;;;;;5075745;28;20070;-80
2021/10/02 13:20:58;;;;;;;3.88;0.95;;;19.00;99.90;;;;;;5076619;28;20028;-82
2021/10/02 13:23:39;;;;;;;4.18;0.82;;;18.80;99.90;;;;;;5075088;28;20472;-80
2021/10/02 13:26:11;;;;;;;2.67;1.17;;;18.60;99.90;;;;;;5073551;28;20112;-81
2021/10/02 13:28:44;;;;;;;4.20;0.82;;;18.60;99.90;;;;;;5068785;28;20024;-82
2021/10/02 13:31:15;;;;;;;3.05;0.70;;;18.60;99.90;;;;;;5070025;28;20074;-81
2021/10/02 13:33:42;;;;;;;4.47;1.00;;;18.60;99.90;;;;;;5067495;28;20059;-80
2021/10/02 13:36:34;;;;;;;1.58;0.80;;;18.50;99.90;;;;;;5066529;28;20040;-82
2021/10/02 13:39:11;;;;;;;4.63;1.08;;;18.50;99.90;;;;;;5082683;28;20025;-81
2021/10/02 13:41:39;;;;;;;3.10;1.20;;;18.40;99.90;;;;;;5069992;28;20127;-79
2021/10/02 13:44:06;;;;;;;4.35;1.00;;;18.30;99.90;;;;;;5068142;28;20024;-82
2021/10/02 13:46:34;;;;;;;3.55;1.00;;;18.30;99.90;;;;;;5067605;28;20032;-82
2021/10/02 13:49:02;;;;;;;3.13;1.23;;;18.50;99.90;;;;;;5070665;28;20029;-81